Time;durP1;ratioP1;P1;durP2;ratioP2;P2;SDS_P1;SDS_P2;PMS_P1;PMS_P2;Temp;Humidity;BMP_temperature;BMP_pressure;BME280_temperature;BME280_humidity;BME280_pressure;Samples;Min_cycle;Max_cycle;Signal;HPM_P1;HPM_P2
2021/03/04 00:00:19;;;;;;;59.40;27.17;;;4.20;99.90;;;;;;5107644;28;20044;-66
2021/03/04 00:02:46;;;;;;;60.63;27.92;;;4.20;99.90;;;;;;5110756;28;20040;-66
2021/03/04 00:05:13;;;;;;;55.90;28.50;;;4.20;99.90;;;;;;5110817;28;20036;-66
2021/03/04 00:07:39;;;;;;;62.88;28.48;;;4.20;99.90;;;;;;5110742;28;20055;-66
2021/03/04 00:10:08;;;;;;;62.28;28.60;;;4.10;99.90;;;;;;5107042;28;20035;-66
2021/03/04 00:12:34;;;;;;;51.78;26.13;;;4.10;99.90;;;;;;5108656;28;20066;-66
2021/03/04 00:15:00;;;;;;;55.47;25.60;;;4.10;99.90;;;;;;5110303;28;20043;-66
2021/03/04 00:17:26;;;;;;;56.22;27.73;;;4.20;99.90;;;;;;5110933;28;20493;-66
2021/03/04 00:19:51;;;;;;;52.50;25.05;;;4.20;99.90;;;;;;5110978;28;20059;-66
2021/03/04 00:22:17;;;;;;;55.58;25.73;;;4.20;99.90;;;;;;5109772;28;20046;-66
2021/03/04 00:24:43;;;;;;;47.72;24.55;;;4.20;99.90;;;;;;5110605;28;20595;-66
2021/03/04 00:27:09;;;;;;;49.90;24.02;;;4.20;99.90;;;;;;5110353;28;20104;-66
2021/03/04 00:29:34;;;;;;;52.30;24.58;;;4.20;99.90;;;;;;5111214;28;20043;-66
2021/03/04 00:32:00;;;;;;;53.67;23.33;;;4.20;99.90;;;;;;5110666;28;20486;-66
2021/03/04 00:34:26;;;;;;;43.28;22.05;;;4.20;99.90;;;;;;5106627;28;20653;-66
2021/03/04 00:36:51;;;;;;;48.60;23.60;;;4.20;99.90;;;;;;5110495;28;20042;-66
2021/03/04 00:39:17;;;;;;;47.05;22.05;;;4.20;99.90;;;;;;5109127;28;20043;-66
2021/03/04 00:41:44;;;;;;;49.38;23.02;;;4.20;99.90;;;;;;5105532;28;20043;-66
2021/03/04 00:44:09;;;;;;;41.22;20.95;;;4.20;99.90;;;;;;5110196;28;20114;-66
2021/03/04 00:46:35;;;;;;;45.40;20.60;;;4.20;99.90;;;;;;5109496;28;20039;-66
2021/03/04 00:49:01;;;;;;;45.00;22.58;;;4.20;99.90;;;;;;5110688;28;20040;-66
2021/03/04 00:51:28;;;;;;;48.13;23.67;;;4.30;99.90;;;;;;5110626;28;20032;-66
2021/03/04 00:53:53;;;;;;;42.25;22.08;;;4.20;99.90;;;;;;5109775;28;20039;-66
2021/03/04 00:56:19;;;;;;;48.88;23.20;;;4.30;99.90;;;;;;5105418;28;20023;-66
2021/03/04 00:58:45;;;;;;;48.20;22.75;;;4.30;99.90;;;;;;5087966;28;20036;-66
2021/03/04 01:01:11;;;;;;;55.90;22.85;;;4.30;99.90;;;;;;5109631;28;20338;-66
2021/03/04 01:03:37;;;;;;;46.45;20.75;;;4.30;99.90;;;;;;5105409;28;20543;-66
2021/03/04 01:06:03;;;;;;;42.40;20.27;;;4.40;99.90;;;;;;5110218;28;20052;-66
2021/03/04 01:08:28;;;;;;;49.15;21.95;;;4.30;99.90;;;;;;5107916;28;20063;-66
2021/03/04 01:10:54;;;;;;;45.22;21.73;;;4.30;99.90;;;;;;5107045;28;20039;-66
2021/03/04 01:13:21;;;;;;;45.13;21.00;;;4.20;99.90;;;;;;5109732;28;20032;-66
2021/03/04 01:15:48;;;;;;;44.13;19.85;;;4.20;99.90;;;;;;5106496;28;20115;-66
2021/03/04 01:18:14;;;;;;;41.50;20.23;;;4.20;99.90;;;;;;5110407;28;20040;-66
2021/03/04 01:20:39;;;;;;;37.33;18.50;;;4.20;99.90;;;;;;5110534;28;20420;-66
2021/03/04 01:23:05;;;;;;;33.92;17.42;;;4.20;99.90;;;;;;5090868;28;20096;-66
2021/03/04 01:25:31;;;;;;;34.67;18.73;;;4.10;99.90;;;;;;5109244;28;20077;-66
2021/03/04 01:27:57;;;;;;;31.10;16.70;;;4.10;99.90;;;;;;5110016;28;20039;-66
2021/03/04 01:30:31;;;;;;;31.40;15.85;;;4.10;99.90;;;;;;5109931;28;20496;-66
2021/03/04 01:32:57;;;;;;;32.97;15.85;;;4.10;99.90;;;;;;5103220;28;20111;-66
2021/03/04 01:35:23;;;;;;;35.00;16.98;;;4.20;99.90;;;;;;5109453;28;20104;-66
2021/03/04 01:37:49;;;;;;;34.70;17.13;;;4.10;99.90;;;;;;5107124;28;20270;-66
2021/03/04 01:40:17;;;;;;;36.83;16.08;;;4.10;99.90;;;;;;5110103;28;20053;-66
2021/03/04 01:42:43;;;;;;;34.00;16.98;;;4.10;99.90;;;;;;5106943;28;20031;-66
2021/03/04 01:45:10;;;;;;;40.10;17.17;;;4.20;99.90;;;;;;5109641;28;20093;-66
2021/03/04 01:47:38;;;;;;;42.45;18.30;;;4.10;99.90;;;;;;5108597;28;20032;-66
2021/03/04 01:50:06;;;;;;;36.65;17.35;;;4.10;99.90;;;;;;5109771;28;20036;-66
2021/03/04 01:52:32;;;;;;;37.42;18.17;;;4.10;99.90;;;;;;5108500;28;20470;-66
2021/03/04 01:54:59;;;;;;;39.13;16.67;;;4.10;99.90;;;;;;5105105;28;20831;-66
2021/03/04 01:57:28;;;;;;;41.28;18.85;;;4.10;99.90;;;;;;5102351;28;20044;-66
2021/03/04 01:59:56;;;;;;;39.03;18.05;;;4.20;99.90;;;;;;5107412;28;20490;-66
2021/03/04 02:02:22;;;;;;;34.70;16.00;;;4.20;99.90;;;;;;5107800;28;20313;-66
2021/03/04 02:04:50;;;;;;;29.55;15.32;;;4.20;99.90;;;;;;5104558;28;20051;-66
2021/03/04 02:07:49;;;;;;;27.17;14.32;;;4.20;99.90;;;;;;5109599;28;20049;-66
2021/03/04 02:10:15;;;;;;;32.00;15.30;;;4.20;99.90;;;;;;5107776;28;20129;-66
2021/03/04 02:12:52;;;;;;;30.25;15.65;;;4.20;99.90;;;;;;5107881;28;20206;-66
2021/03/04 02:15:24;;;;;;;32.88;16.40;;;4.20;99.90;;;;;;5108052;28;20044;-66
2021/03/04 02:17:53;;;;;;;27.10;15.07;;;4.20;99.90;;;;;;5109311;28;20023;-66
2021/03/04 02:20:28;;;;;;;33.25;15.80;;;4.40;99.90;;;;;;5112391;28;20038;-65
2021/03/04 02:23:13;;;;;;;;;;;4.20;99.90;;;;;;5113167;28;20149;-66
2021/03/04 02:26:00;;;;;;;29.30;15.20;;;4.20;99.90;;;;;;5117370;27;20286;-66
2021/03/04 02:28:29;;;;;;;30.98;14.55;;;4.20;99.90;;;;;;5112255;28;20134;-66
2021/03/04 02:31:00;;;;;;;29.08;14.77;;;4.20;99.90;;;;;;5106030;28;20039;-66
2021/03/04 02:33:28;;;;;;;30.33;14.63;;;4.20;99.90;;;;;;5111624;28;20028;-66
2021/03/04 02:35:55;;;;;;;29.98;15.48;;;4.10;99.90;;;;;;5110898;28;20116;-66
2021/03/04 02:38:22;;;;;;;28.35;13.85;;;4.10;99.90;;;;;;5111265;28;20057;-66
2021/03/04 02:40:50;;;;;;;31.42;15.18;;;4.20;99.90;;;;;;5112898;28;20418;-66
2021/03/04 02:43:20;;;;;;;34.55;16.95;;;4.20;99.90;;;;;;5108877;28;20032;-66
2021/03/04 02:45:46;;;;;;;30.42;15.70;;;4.20;99.90;;;;;;5110299;28;20608;-66
2021/03/04 02:48:14;;;;;;;32.60;16.08;;;4.10;99.90;;;;;;5112130;28;20051;-66
2021/03/04 02:50:42;;;;;;;32.78;15.98;;;4.10;99.90;;;;;;5110684;28;20059;-66
2021/03/04 02:53:08;;;;;;;33.63;15.85;;;4.20;99.90;;;;;;5112612;28;20043;-66
2021/03/04 02:55:35;;;;;;;27.25;15.60;;;4.10;99.90;;;;;;5112652;28;20090;-66
2021/03/04 02:58:02;;;;;;;34.60;16.85;;;4.20;99.90;;;;;;5112138;28;20043;-66
2021/03/04 03:00:29;;;;;;;31.75;15.70;;;4.20;99.90;;;;;;5112560;28;20055;-66
2021/03/04 03:02:57;;;;;;;35.67;17.65;;;4.30;99.90;;;;;;5109512;28;20070;-66
2021/03/04 03:05:27;;;;;;;32.83;16.45;;;4.20;99.90;;;;;;5109711;28;20444;-66
2021/03/04 03:07:53;;;;;;;35.53;17.98;;;4.20;99.90;;;;;;5109870;28;20652;-66
2021/03/04 03:10:19;;;;;;;30.73;16.85;;;4.30;99.90;;;;;;5112858;28;20284;-66
2021/03/04 03:12:47;;;;;;;32.47;16.55;;;4.20;99.90;;;;;;5111580;28;20050;-66
2021/03/04 03:15:16;;;;;;;35.45;16.95;;;4.20;99.90;;;;;;5112634;28;20042;-66
2021/03/04 03:17:43;;;;;;;33.92;18.20;;;4.30;99.90;;;;;;5108260;28;20130;-66
2021/03/04 03:20:16;;;;;;;39.85;19.02;;;4.30;99.90;;;;;;5094284;28;20035;-66
2021/03/04 03:22:42;;;;;;;33.65;18.05;;;4.30;99.90;;;;;;5107960;28;20485;-66
2021/03/04 03:25:10;;;;;;;33.53;18.90;;;4.30;99.90;;;;;;5105397;28;20035;-66
2021/03/04 03:27:36;;;;;;;40.75;19.10;;;4.30;99.90;;;;;;5105481;28;20032;-66
2021/03/04 03:30:10;;;;;;;37.22;18.30;;;4.30;99.90;;;;;;5104950;28;20135;-66
2021/03/04 03:32:42;;;;;;;40.55;18.35;;;4.30;99.90;;;;;;5106249;28;20036;-66
2021/03/04 03:35:09;;;;;;;35.30;17.23;;;4.30;99.90;;;;;;5107881;28;20027;-66
2021/03/04 03:37:36;;;;;;;31.08;17.00;;;4.30;99.90;;;;;;5105899;28;20038;-66
2021/03/04 03:40:05;;;;;;;38.50;19.40;;;4.30;99.90;;;;;;5090953;28;20485;-66
2021/03/04 03:42:32;;;;;;;36.08;19.00;;;4.30;99.90;;;;;;5105312;28;20039;-66
2021/03/04 03:44:59;;;;;;;38.80;19.45;;;4.30;99.90;;;;;;5106834;28;20036;-66
2021/03/04 03:47:26;;;;;;;35.50;19.63;;;4.30;99.90;;;;;;5106518;28;20040;-66
2021/03/04 03:49:52;;;;;;;36.53;18.92;;;4.30;99.90;;;;;;5105917;28;20085;-66
2021/03/04 03:52:19;;;;;;;35.95;17.38;;;4.30;99.90;;;;;;5104837;28;20048;-66
2021/03/04 03:54:45;;;;;;;36.90;18.13;;;4.30;99.90;;;;;;5103504;28;20036;-66
2021/03/04 03:57:12;;;;;;;32.72;17.23;;;4.30;99.90;;;;;;5106248;27;20447;-66
2021/03/04 03:59:39;;;;;;;36.80;18.10;;;4.30;99.90;;;;;;5089017;28;20093;-66
2021/03/04 04:02:06;;;;;;;37.50;17.83;;;4.30;99.90;;;;;;5105218;28;20050;-66
2021/03/04 04:04:32;;;;;;;38.97;19.60;;;4.30;99.90;;;;;;5107202;28;20032;-66
2021/03/04 04:06:58;;;;;;;33.47;17.98;;;4.30;99.90;;;;;;5106071;28;20062;-66
2021/03/04 04:09:25;;;;;;;35.90;19.92;;;4.30;99.90;;;;;;5104326;28;20028;-66
2021/03/04 04:11:50;;;;;;;37.55;18.30;;;4.30;99.90;;;;;;5103609;28;20063;-66
2021/03/04 04:14:16;;;;;;;35.90;19.48;;;4.30;99.90;;;;;;5106624;28;20070;-66
2021/03/04 04:16:43;;;;;;;38.60;18.88;;;4.30;99.90;;;;;;5106531;28;20402;-66
2021/03/04 04:19:08;;;;;;;35.90;18.30;;;4.30;99.90;;;;;;5106692;28;20035;-66
2021/03/04 04:21:35;;;;;;;35.15;16.95;;;4.30;99.90;;;;;;5106680;28;20046;-66
2021/03/04 04:24:01;;;;;;;35.22;17.08;;;4.30;99.90;;;;;;5103715;28;20138;-66
2021/03/04 04:26:26;;;;;;;35.65;17.73;;;4.50;99.90;;;;;;5100966;28;20110;-66
2021/03/04 04:28:52;;;;;;;31.55;16.75;;;4.20;99.90;;;;;;5102239;28;20035;-65
2021/03/04 04:31:19;;;;;;;34.15;18.15;;;4.10;99.90;;;;;;5107881;28;20092;-66
2021/03/04 04:33:45;;;;;;;35.20;18.30;;;4.10;99.90;;;;;;5108290;28;20036;-66
2021/03/04 04:36:11;;;;;;;33.08;17.23;;;4.10;99.90;;;;;;5108021;28;20051;-66
2021/03/04 04:38:36;;;;;;;34.58;16.83;;;4.10;99.90;;;;;;5105789;28;20077;-66
2021/03/04 04:41:02;;;;;;;29.13;16.13;;;4.20;99.90;;;;;;5107153;28;20043;-66
2021/03/04 04:43:28;;;;;;;30.80;16.75;;;4.20;99.90;;;;;;5106377;28;20050;-65
2021/03/04 04:45:54;;;;;;;31.52;16.63;;;4.20;99.90;;;;;;5105199;28;20512;-66
2021/03/04 04:48:19;;;;;;;30.55;15.63;;;4.20;99.90;;;;;;5106213;28;20054;-66
2021/03/04 04:50:45;;;;;;;28.80;16.08;;;4.20;99.90;;;;;;5108248;28;20061;-66
2021/03/04 04:53:11;;;;;;;25.25;14.85;;;4.20;99.90;;;;;;5104542;28;20035;-66
2021/03/04 04:55:37;;;;;;;24.33;14.02;;;4.20;99.90;;;;;;5102236;28;20074;-66
2021/03/04 04:58:03;;;;;;;23.77;13.15;;;4.20;99.90;;;;;;5104241;28;20036;-66
2021/03/04 05:00:32;;;;;;;21.45;12.38;;;4.30;99.90;;;;;;5103908;28;20051;-65
2021/03/04 05:02:58;;;;;;;20.42;11.85;;;3.80;99.90;;;;;;5105213;28;20035;-66
2021/03/04 05:05:24;;;;;;;21.38;12.80;;;4.20;99.90;;;;;;5106164;28;20036;-66
2021/03/04 05:07:50;;;;;;;17.20;11.43;;;4.20;99.90;;;;;;5106090;28;20036;-66
2021/03/04 05:10:16;;;;;;;18.90;12.45;;;4.20;99.90;;;;;;5105438;28;20401;-66
2021/03/04 05:12:42;;;;;;;18.90;11.75;;;4.20;99.90;;;;;;5103618;28;20409;-66
2021/03/04 05:15:10;;;;;;;17.60;11.90;;;4.20;99.90;;;;;;5103838;28;20040;-66
2021/03/04 05:17:37;;;;;;;15.95;10.88;;;4.20;99.90;;;;;;5101439;28;20040;-66
2021/03/04 05:20:05;;;;;;;16.75;11.85;;;4.20;99.90;;;;;;5106225;28;20039;-66
2021/03/04 05:22:31;;;;;;;17.08;11.60;;;4.20;99.90;;;;;;5106036;28;20032;-66
2021/03/04 05:24:57;;;;;;;18.73;12.73;;;4.20;99.90;;;;;;5109346;28;20035;-66
2021/03/04 05:27:23;;;;;;;19.20;12.18;;;4.20;99.90;;;;;;5108839;28;20550;-66
2021/03/04 05:29:49;;;;;;;19.38;12.02;;;4.20;99.90;;;;;;5109291;28;20081;-66
2021/03/04 05:32:18;;;;;;;18.75;12.13;;;4.20;99.90;;;;;;5109132;28;20089;-66
2021/03/04 05:34:45;;;;;;;22.65;13.65;;;4.10;99.90;;;;;;5102866;28;20036;-66
2021/03/04 05:37:11;;;;;;;21.25;13.40;;;4.10;99.90;;;;;;5107102;28;20477;-66
2021/03/04 05:39:37;;;;;;;19.98;12.45;;;4.00;99.90;;;;;;5103955;28;20036;-65
2021/03/04 05:42:08;;;;;;;21.40;12.63;;;4.00;99.90;;;;;;5100619;28;20043;-66
2021/03/04 05:44:34;;;;;;;22.70;11.60;;;4.00;99.90;;;;;;5101591;28;20367;-66
2021/03/04 05:47:02;;;;;;;19.48;12.50;;;4.00;99.90;;;;;;5101543;28;20043;-66
2021/03/04 05:49:30;;;;;;;17.77;11.95;;;3.90;99.90;;;;;;5103037;28;20066;-66
2021/03/04 05:51:58;;;;;;;18.23;12.32;;;3.80;99.90;;;;;;5108275;28;20389;-65
2021/03/04 05:54:27;;;;;;;19.77;11.55;;;3.80;99.90;;;;;;5110301;28;20114;-65
2021/03/04 05:56:54;;;;;;;16.27;11.20;;;3.90;99.90;;;;;;5112439;28;20512;-65
2021/03/04 05:59:22;;;;;;;18.48;11.77;;;3.70;99.90;;;;;;5109314;28;20507;-66
2021/03/04 06:01:49;;;;;;;19.10;11.65;;;3.80;99.90;;;;;;5115831;27;20042;-66
2021/03/04 06:04:14;;;;;;;15.73;10.45;;;3.80;99.90;;;;;;5105908;28;20154;-65
2021/03/04 06:06:40;;;;;;;13.43;9.38;;;3.90;99.90;;;;;;5109607;28;20296;-65
2021/03/04 06:09:06;;;;;;;14.00;8.93;;;3.90;99.90;;;;;;5109660;28;20039;-65
2021/03/04 06:11:36;;;;;;;11.07;8.27;;;3.80;99.90;;;;;;5104941;28;20328;-66
2021/03/04 06:14:03;;;;;;;13.13;8.52;;;3.90;99.90;;;;;;5107153;28;20044;-65
2021/03/04 06:16:29;;;;;;;11.95;7.95;;;3.90;99.90;;;;;;5105410;28;20071;-65
2021/03/04 06:18:55;;;;;;;10.60;8.27;;;3.90;99.90;;;;;;5114237;27;20499;-65
2021/03/04 06:21:23;;;;;;;11.55;8.43;;;3.90;99.90;;;;;;5109065;28;20409;-66
2021/03/04 06:23:49;;;;;;;13.57;9.07;;;3.90;99.90;;;;;;5111865;28;20047;-65
2021/03/04 06:26:25;;;;;;;10.70;8.43;;;3.90;99.90;;;;;;5112687;28;20054;-65
2021/03/04 06:28:52;;;;;;;14.52;9.63;;;3.90;99.90;;;;;;5107714;28;20103;-65
2021/03/04 06:31:20;;;;;;;13.40;9.07;;;3.90;99.90;;;;;;5112128;28;20036;-65
2021/03/04 06:33:45;;;;;;;12.00;8.48;;;3.90;99.90;;;;;;5112264;28;20493;-65
2021/03/04 06:36:13;;;;;;;12.13;8.25;;;3.90;99.90;;;;;;5110185;28;20077;-65
2021/03/04 06:38:39;;;;;;;12.70;9.18;;;3.90;99.90;;;;;;5112068;28;20035;-65
2021/03/04 06:41:17;;;;;;;13.05;8.95;;;3.90;99.90;;;;;;5112896;28;20410;-65
2021/03/04 06:43:42;;;;;;;13.18;8.93;;;4.00;99.90;;;;;;5075252;28;20078;-66
2021/03/04 06:46:09;;;;;;;13.80;9.00;;;3.90;99.90;;;;;;5112656;28;20466;-65
2021/03/04 06:48:35;;;;;;;13.10;9.23;;;3.90;99.90;;;;;;5112516;28;20035;-65
2021/03/04 06:51:03;;;;;;;36.30;11.07;;;3.90;99.90;;;;;;5112724;28;20088;-66
2021/03/04 06:53:30;;;;;;;23.65;10.07;;;3.90;99.90;;;;;;5110149;28;20039;-65
2021/03/04 06:56:01;;;;;;;15.75;9.27;;;3.90;99.90;;;;;;5110585;28;20046;-65
2021/03/04 06:59:00;;;;;;;17.83;9.57;;;3.90;99.90;;;;;;5111453;28;20573;-65
2021/03/04 07:01:26;;;;;;;10.95;8.55;;;4.00;99.90;;;;;;5103324;28;20042;-65
2021/03/04 07:03:54;;;;;;;14.73;9.73;;;4.00;99.90;;;;;;5106120;28;21231;-66
2021/03/04 07:06:24;;;;;;;17.90;11.25;;;4.00;99.90;;;;;;5109522;28;20039;-66
2021/03/04 07:08:52;;;;;;;14.45;9.25;;;4.00;99.90;;;;;;5108395;28;20413;-65
2021/03/04 07:11:25;;;;;;;12.60;9.07;;;4.10;99.90;;;;;;5110689;28;20047;-65
2021/03/04 07:13:52;;;;;;;14.00;9.77;;;4.10;99.90;;;;;;5107330;28;20039;-65
2021/03/04 07:16:22;;;;;;;11.90;9.27;;;4.10;99.90;;;;;;5106717;28;20114;-66
2021/03/04 07:18:56;;;;;;;15.18;10.05;;;4.10;99.90;;;;;;5110452;28;20040;-65
2021/03/04 07:21:26;;;;;;;15.15;9.23;;;4.10;99.90;;;;;;5110726;28;20126;-66
2021/03/04 07:23:53;;;;;;;11.50;8.90;;;4.10;99.90;;;;;;5112059;28;20107;-65
2021/03/04 07:26:20;;;;;;;13.98;9.18;;;4.20;99.90;;;;;;5111611;28;20069;-66
2021/03/04 07:28:47;;;;;;;15.40;9.65;;;4.20;99.90;;;;;;5110461;28;20496;-65
2021/03/04 07:31:14;;;;;;;12.48;8.63;;;4.20;99.90;;;;;;5111243;28;20066;-65
2021/03/04 07:33:49;;;;;;;12.90;9.98;;;4.20;99.90;;;;;;5110675;28;20028;-65
2021/03/04 07:36:20;;;;;;;14.05;9.50;;;4.20;99.90;;;;;;5106904;28;20042;-65
2021/03/04 07:39:04;;;;;;;14.95;10.30;;;4.20;99.90;;;;;;5109244;28;20039;-65
2021/03/04 07:41:39;;;;;;;13.20;10.10;;;4.30;99.90;;;;;;5109365;28;20035;-65
2021/03/04 07:44:07;;;;;;;19.25;10.57;;;4.20;99.90;;;;;;5104832;28;20412;-65
2021/03/04 07:46:38;;;;;;;13.85;10.30;;;4.20;99.90;;;;;;5110345;28;20039;-65
2021/03/04 07:49:08;;;;;;;13.57;10.30;;;4.30;99.90;;;;;;5110040;28;20036;-65
2021/03/04 07:51:44;;;;;;;15.27;9.65;;;4.30;99.90;;;;;;5108801;28;20051;-66
2021/03/04 07:54:11;;;;;;;13.15;10.15;;;4.20;99.90;;;;;;5089952;28;20371;-65
2021/03/04 07:56:37;;;;;;;16.20;10.38;;;4.30;99.90;;;;;;5107962;28;20036;-66
2021/03/04 07:59:09;;;;;;;16.40;10.27;;;4.20;99.90;;;;;;5108593;28;20486;-65
2021/03/04 08:01:35;;;;;;;14.43;11.05;;;4.30;99.90;;;;;;5109112;28;20080;-65
2021/03/04 08:04:01;;;;;;;17.58;11.40;;;4.30;99.90;;;;;;5107534;28;20036;-65
2021/03/04 08:06:27;;;;;;;16.20;11.25;;;4.30;99.90;;;;;;5107135;28;20164;-65
2021/03/04 08:08:53;;;;;;;17.35;10.63;;;4.30;99.90;;;;;;5104886;27;20046;-65
2021/03/04 08:11:28;;;;;;;14.52;11.38;;;4.30;99.90;;;;;;5105057;28;20039;-65
2021/03/04 08:13:54;;;;;;;22.75;11.40;;;4.30;99.90;;;;;;5109714;28;20447;-65
2021/03/04 08:16:20;;;;;;;26.63;10.70;;;4.30;99.90;;;;;;5107885;28;20416;-65
2021/03/04 08:18:56;;;;;;;50.45;13.95;;;4.30;99.90;;;;;;5105448;28;20058;-65
2021/03/04 08:21:23;;;;;;;16.58;10.07;;;4.40;99.90;;;;;;5108476;28;20043;-66
2021/03/04 08:23:49;;;;;;;14.07;10.20;;;4.40;99.90;;;;;;5108778;28;20085;-65
2021/03/04 08:26:23;;;;;;;15.95;10.35;;;4.40;99.90;;;;;;5109247;28;20132;-65
2021/03/04 08:28:49;;;;;;;14.85;10.75;;;4.40;99.90;;;;;;5107340;28;20036;-65
2021/03/04 08:31:15;;;;;;;16.45;10.70;;;4.50;99.90;;;;;;5091040;28;20031;-65
2021/03/04 08:33:42;;;;;;;23.80;11.30;;;4.40;99.90;;;;;;5090995;28;20049;-66
2021/03/04 08:36:07;;;;;;;16.25;10.48;;;4.50;99.90;;;;;;5109960;28;20566;-65
2021/03/04 08:38:42;;;;;;;13.02;9.50;;;4.40;99.90;;;;;;5108242;28;20036;-65
2021/03/04 08:41:07;;;;;;;12.60;9.57;;;4.50;99.90;;;;;;5106531;28;20035;-65
2021/03/04 08:43:33;;;;;;;13.88;9.45;;;4.40;99.90;;;;;;5107530;28;20104;-65
2021/03/04 08:46:06;;;;;;;12.63;9.73;;;4.50;99.90;;;;;;5104455;28;20494;-65
2021/03/04 08:48:32;;;;;;;11.38;9.35;;;4.50;99.90;;;;;;5105397;28;20032;-65
2021/03/04 08:51:03;;;;;;;14.57;9.10;;;4.50;99.90;;;;;;5108747;28;20050;-65
2021/03/04 08:53:33;;;;;;;11.88;8.73;;;4.50;99.90;;;;;;5108886;28;20509;-65
2021/03/04 08:56:07;;;;;;;11.98;8.80;;;4.50;99.90;;;;;;5108973;28;20043;-65
2021/03/04 08:58:43;;;;;;;10.60;8.40;;;4.50;99.90;;;;;;5108468;28;20046;-65
2021/03/04 09:01:10;;;;;;;12.93;9.00;;;4.50;99.90;;;;;;5106793;28;20061;-65
2021/03/04 09:03:43;;;;;;;11.63;8.60;;;4.50;99.90;;;;;;5105398;28;20431;-65
2021/03/04 09:06:16;;;;;;;13.85;9.20;;;4.50;99.90;;;;;;5108671;28;20039;-65
2021/03/04 09:08:50;;;;;;;9.48;7.55;;;4.60;99.90;;;;;;5108125;28;20081;-65
2021/03/04 09:11:30;;;;;;;9.90;8.45;;;4.60;99.90;;;;;;5106795;28;20077;-65
2021/03/04 09:14:07;;;;;;;12.90;8.50;;;4.50;99.90;;;;;;5104024;28;20054;-65
2021/03/04 09:16:43;;;;;;;10.05;8.68;;;4.60;99.90;;;;;;5106745;28;20113;-65
2021/03/04 09:19:32;;;;;;;11.20;8.40;;;4.60;99.90;;;;;;5106972;28;20385;-65
2021/03/04 09:22:02;;;;;;;10.80;8.25;;;4.60;99.90;;;;;;5107886;28;20084;-65
2021/03/04 09:24:28;;;;;;;12.73;8.75;;;4.60;99.90;;;;;;5105590;28;20044;-65
2021/03/04 09:26:54;;;;;;;11.27;7.57;;;4.60;99.90;;;;;;5106567;28;20035;-65
2021/03/04 09:29:21;;;;;;;14.00;8.27;;;4.70;99.90;;;;;;5107766;28;20482;-65
2021/03/04 09:31:51;;;;;;;10.65;7.68;;;4.80;99.90;;;;;;5106825;28;20035;-65
2021/03/04 09:34:17;;;;;;;9.55;7.32;;;4.80;99.90;;;;;;5102859;28;20035;-65
2021/03/04 09:36:43;;;;;;;9.57;7.95;;;4.80;99.90;;;;;;5108598;28;20032;-65
2021/03/04 09:39:09;;;;;;;10.80;6.72;;;4.90;99.90;;;;;;5106274;28;20040;-65
2021/03/04 09:41:35;;;;;;;12.13;7.05;;;4.90;99.90;;;;;;5103600;28;20046;-65
2021/03/04 09:44:04;;;;;;;9.93;7.60;;;5.00;99.90;;;;;;5108213;28;20732;-65
2021/03/04 09:46:35;;;;;;;9.77;6.57;;;5.00;99.90;;;;;;5086730;28;20057;-65
2021/03/04 09:49:11;;;;;;;9.10;7.05;;;5.10;99.90;;;;;;5106556;28;20110;-65
2021/03/04 09:51:42;;;;;;;8.07;6.63;;;5.10;99.90;;;;;;5105151;28;20043;-65
2021/03/04 09:54:09;;;;;;;13.13;6.82;;;5.20;99.90;;;;;;5105637;28;20036;-65
2021/03/04 09:56:35;;;;;;;14.27;7.15;;;5.20;99.90;;;;;;5103180;28;20568;-65
2021/03/04 09:59:01;;;;;;;16.63;6.82;;;5.30;99.90;;;;;;5108821;28;20119;-65
2021/03/04 10:01:34;;;;;;;12.45;6.53;;;5.30;99.90;;;;;;5106451;28;20071;-65
2021/03/04 10:04:05;;;;;;;10.13;6.78;;;5.30;99.90;;;;;;5095983;28;20039;-65
2021/03/04 10:06:37;;;;;;;11.40;7.38;;;5.30;99.90;;;;;;5103313;28;20046;-65
2021/03/04 10:09:05;;;;;;;7.38;6.50;;;5.30;99.90;;;;;;5106985;28;20050;-65
2021/03/04 10:11:32;;;;;;;9.23;6.70;;;5.30;99.90;;;;;;5107487;28;20239;-65
2021/03/04 10:14:13;;;;;;;12.98;7.38;;;5.30;99.90;;;;;;5107401;28;20490;-65
2021/03/04 10:16:39;;;;;;;8.80;7.50;;;5.30;99.90;;;;;;5109940;28;20143;-65
2021/03/04 10:19:07;;;;;;;7.22;6.25;;;5.30;99.90;;;;;;5089692;28;20043;-65
2021/03/04 10:21:34;;;;;;;9.35;5.60;;;5.30;99.90;;;;;;5100029;28;20733;-65
2021/03/04 10:24:00;;;;;;;10.02;4.88;;;5.30;99.90;;;;;;5096666;28;20089;-65
2021/03/04 10:26:26;;;;;;;6.50;5.07;;;5.30;99.90;;;;;;5095146;28;20399;-65
2021/03/04 10:28:52;;;;;;;8.50;5.00;;;5.30;99.90;;;;;;5096469;28;20046;-65
2021/03/04 10:31:18;;;;;;;9.75;4.65;;;5.30;99.90;;;;;;5103176;28;20027;-65
2021/03/04 10:33:43;;;;;;;5.70;5.05;;;5.20;99.90;;;;;;5107276;28;20066;-65
2021/03/04 10:36:10;;;;;;;6.75;5.32;;;5.20;99.90;;;;;;5109168;28;20470;-65
2021/03/04 10:38:36;;;;;;;7.88;4.85;;;5.30;99.90;;;;;;5109697;28;20039;-65
2021/03/04 10:41:02;;;;;;;11.20;6.13;;;5.40;99.90;;;;;;5109030;28;20035;-65
2021/03/04 10:43:28;;;;;;;8.77;4.88;;;5.40;99.90;;;;;;5100061;28;20077;-65
2021/03/04 10:45:54;;;;;;;9.93;5.32;;;5.50;99.90;;;;;;5103806;28;20047;-65
2021/03/04 10:48:21;;;;;;;8.90;5.50;;;5.50;99.90;;;;;;5100815;28;20044;-65
2021/03/04 10:50:47;;;;;;;8.90;5.53;;;5.50;99.90;;;;;;5099217;28;20047;-65
2021/03/04 10:53:13;;;;;;;7.93;5.53;;;5.50;99.90;;;;;;5100618;28;20035;-65
2021/03/04 10:55:40;;;;;;;6.05;5.13;;;5.50;99.90;;;;;;5101256;28;20174;-65
2021/03/04 10:58:05;;;;;;;6.00;4.13;;;5.50;99.90;;;;;;5108481;28;20057;-65
2021/03/04 11:00:31;;;;;;;6.18;4.45;;;5.50;99.90;;;;;;5108037;28;20481;-65
2021/03/04 11:02:57;;;;;;;13.75;5.18;;;5.60;99.90;;;;;;5107782;28;20032;-65
2021/03/04 11:05:23;;;;;;;6.45;4.40;;;5.60;99.90;;;;;;5110165;28;20126;-65
2021/03/04 11:07:49;;;;;;;7.88;4.35;;;5.60;99.90;;;;;;5106215;28;20494;-65
2021/03/04 11:10:14;;;;;;;7.35;4.38;;;5.60;99.90;;;;;;5108018;28;20031;-65
2021/03/04 11:12:40;;;;;;;6.20;3.97;;;5.70;99.90;;;;;;5109772;28;20039;-65
2021/03/04 11:15:07;;;;;;;6.10;4.68;;;5.70;99.90;;;;;;5105470;28;20085;-65
2021/03/04 11:17:33;;;;;;;13.57;4.68;;;5.70;99.90;;;;;;5099597;28;20040;-65
2021/03/04 11:19:59;;;;;;;6.88;4.85;;;5.70;99.90;;;;;;5099424;28;20047;-65
2021/03/04 11:22:25;;;;;;;8.52;4.40;;;5.70;99.90;;;;;;5103379;28;20104;-65
2021/03/04 11:24:51;;;;;;;7.68;4.40;;;5.70;99.90;;;;;;5104363;28;20032;-65
2021/03/04 11:27:18;;;;;;;8.02;4.45;;;5.70;99.90;;;;;;5104811;28;20075;-66
2021/03/04 11:29:46;;;;;;;6.88;4.72;;;5.80;99.90;;;;;;5105591;28;20430;-65
2021/03/04 11:32:11;;;;;;;13.13;5.00;;;5.80;99.90;;;;;;5085396;28;20032;-65
2021/03/04 11:34:37;;;;;;;10.32;4.20;;;5.90;99.90;;;;;;5096971;28;20050;-65
2021/03/04 11:37:03;;;;;;;42.22;7.90;;;5.90;99.90;;;;;;5099773;28;20028;-65
2021/03/04 11:39:29;;;;;;;62.08;7.97;;;6.00;99.90;;;;;;5099166;28;20067;-66
2021/03/04 11:41:55;;;;;;;6.65;4.40;;;6.00;99.80;;;;;;5098364;28;20492;-65
2021/03/04 11:44:21;;;;;;;7.05;3.83;;;6.00;99.80;;;;;;5098764;28;20118;-65
2021/03/04 11:46:47;;;;;;;5.70;4.20;;;6.00;99.90;;;;;;5097313;28;20047;-65
2021/03/04 11:49:13;;;;;;;6.57;4.07;;;6.00;99.70;;;;;;5098013;28;20043;-65
2021/03/04 11:51:38;;;;;;;6.45;4.10;;;6.00;99.80;;;;;;5103268;28;20036;-65
2021/03/04 11:54:05;;;;;;;6.38;3.95;;;6.00;99.90;;;;;;5107368;28;20040;-65
2021/03/04 11:56:34;;;;;;;9.57;4.38;;;6.00;99.90;;;;;;5109265;28;20115;-65
2021/03/04 11:59:03;;;;;;;10.05;3.70;;;6.00;99.90;;;;;;5107233;28;20043;-65
2021/03/04 12:01:29;;;;;;;7.78;3.95;;;6.10;99.90;;;;;;5107644;28;20730;-65
2021/03/04 12:03:55;;;;;;;12.90;4.35;;;6.00;99.80;;;;;;5100777;28;20031;-65
2021/03/04 12:06:21;;;;;;;8.63;3.85;;;6.00;99.90;;;;;;5090337;28;20039;-65
2021/03/04 12:08:47;;;;;;;11.30;4.35;;;6.00;99.90;;;;;;5107412;28;20114;-65
2021/03/04 12:11:13;;;;;;;8.40;4.20;;;6.10;99.90;;;;;;5108680;28;20112;-65
2021/03/04 12:13:39;;;;;;;8.98;2.92;;;6.10;99.90;;;;;;5105861;28;20485;-65
2021/03/04 12:16:06;;;;;;;7.97;2.85;;;6.10;99.80;;;;;;5109796;28;20066;-65
2021/03/04 12:18:32;;;;;;;8.80;2.47;;;6.10;99.70;;;;;;5099623;28;20394;-65
2021/03/04 12:20:59;;;;;;;9.10;2.20;;;6.10;99.50;;;;;;5098032;28;20040;-65
2021/03/04 12:23:24;;;;;;;12.00;1.90;;;6.10;98.80;;;;;;5100601;28;20081;-65
2021/03/04 12:25:50;;;;;;;18.23;1.73;;;6.10;98.90;;;;;;5107533;28;20067;-65
2021/03/04 12:28:16;;;;;;;13.98;2.00;;;6.20;98.50;;;;;;5108479;28;20042;-65
2021/03/04 12:30:42;;;;;;;14.98;2.22;;;6.20;98.80;;;;;;5110344;28;20474;-65
2021/03/04 12:33:07;;;;;;;13.52;3.33;;;6.20;98.00;;;;;;5109848;28;20042;-65
2021/03/04 12:35:33;;;;;;;17.70;2.30;;;6.10;97.60;;;;;;5109122;28;20040;-65
2021/03/04 12:37:59;;;;;;;14.40;2.20;;;6.20;98.00;;;;;;5110581;28;20069;-65
2021/03/04 12:40:27;;;;;;;19.77;3.95;;;6.20;98.00;;;;;;5106554;28;20082;-65
2021/03/04 12:42:52;;;;;;;18.70;2.47;;;6.20;98.30;;;;;;5100322;28;20047;-65
2021/03/04 12:45:18;;;;;;;17.17;2.97;;;6.30;98.30;;;;;;5097011;28;20698;-65